Flight Track Log - Related Links

Times and Time Zones

All times are in EDT time to prevent confusion due to time zone crossing. See the LYM134 flight status page for this flight to view local times or setup timezone preferences in your user account.


Time Position Orientation Groundspeed Altitude Reporting Facility
EDT Latitude Longitude Course Direction KTS MPH feet Rate Location/Type
Thu 08:33:53 PM 39.5500 -104.8500 180° South 149 171 7,000  Level Denver TRACON
Thu 08:34:53 PM 39.5000 -104.8500 180° South 149 171 9,000 1,916 Climbing Denver TRACON
Thu 08:35:52 PM 39.4667 -104.8500 180° South 167 192 10,800 1,000 Climbing Denver TRACON
Thu 08:36:47 PM 39.4000 -104.8333 169° South 217 250 10,900 86 Climbing Denver TRACON
Thu 08:38:11 PM 39.3283 -104.8094 166° South 255 293 11,000 41 Climbing Denver Center
Thu 08:39:14 PM 39.2392 -104.7831 167° South 265 305 11,000 -48 Level Denver Center
Thu 08:40:16 PM 39.1628 -104.7556 164° South 266 306 10,900 -97 Descending Denver Center
Thu 08:41:18 PM 39.0894 -104.7283 164° South 262 302 10,800  Descending Denver Center
Thu 08:42:20 PM 39.0183 -104.7036 165° South 264 304 10,900  Climbing Denver Center
Thu 08:43:22 PM 38.9489 -104.6772 164° South 262 302 10,800  Descending Denver Center
Thu 08:44:36 PM 38.8767 -104.6528 165° South 267 307 10,900 88 Climbing Denver Center
Thu 08:45:38 PM 38.7842 -104.6169 163° South 270 311 11,000  Climbing Denver Center
Thu 08:46:40 PM 38.7144 -104.5942 166° South 271 312 10,900 -97 Descending Denver Center
Thu 08:47:42 PM 38.6317 -104.5656 165° South 274 315 10,800 -194 Descending Denver Center
Thu 08:48:44 PM 38.5608 -104.5400 164° South 276 318 10,500 -581 Descending Denver Center
Thu 08:49:46 PM 38.4728 -104.5353 178° South 279 321 9,600 -1,065 Descending Denver Center
Thu 08:50:48 PM 38.4000 -104.5494 189° South 276 318 8,300 -1,268 Descending Denver Center
Thu 08:51:49 PM 38.3297 -104.5731 195° South 244 281 7,000 -878 Descending Denver Center
Thu 08:52:51 PM 38.2836 -104.5853 192° South 219 252 6,500 -484 Descending Denver Center
Thu 08:55:00 PM 38.2891 -104.4965 270° West  Level Estimated

Login

Don't have an account? Register now (free) for customized features, flight alerts, and more!